Verona, Virginia
Current Conditions -  °F | °C
As of 4:35 AM on Monday 24 Nov 2014 (Local Time) from KSHD Reporting Station
Haze Haze  
Wind Chill: 50°   Ceiling: Unl
Heat Index: 50°   Visibility: 2mi
Dew Point: 49°   Wind: 0mph
Humidity: 95%   Direction: NA
Pressure: 29.65"   Gusts: NA
Location:  38.2°N, 79.01°W
Report Text: KSHD 240935Z AUTO 00000KT 2SM BR CLR 10/09 A2965 RMK AO2 VIS 3/4V5 T01000092
Loading
Personal Weather Stations






























Interactive Weather Map New forecast layout! Learn more

10-Day Weather Forecast

Advertisements
Track Severe Weather on mobile